Time;durP1;ratioP1;P1;durP2;ratioP2;P2;SDS_P1;SDS_P2;PMS_P1;PMS_P2;Temp;Humidity;BMP_temperature;BMP_pressure;BME280_temperature;BME280_humidity;BME280_pressure;Samples;Min_cycle;Max_cycle;Signal;HPM_P1;HPM_P2
2022/08/19 00:00:45;;;;;;;19.93;15.67;;;;;;;20.25;89.52;101247.91;5081949;28;20200;-76
2022/08/19 00:03:10;;;;;;;19.97;15.43;;;;;;;20.23;89.54;101249.69;5100840;28;20211;-76
2022/08/19 00:05:36;;;;;;;21.30;15.73;;;;;;;20.24;89.46;101244.47;5064120;28;20192;-76
2022/08/19 00:08:02;;;;;;;17.83;15.30;;;;;;;20.25;89.68;101247.91;5063199;28;20185;-76
2022/08/19 00:10:28;;;;;;;17.93;14.90;;;;;;;20.22;89.81;101245.38;5060301;28;20216;-77
2022/08/19 00:12:53;;;;;;;17.23;15.20;;;;;;;20.21;89.48;101241.88;5063943;28;20237;-76
2022/08/19 00:15:21;;;;;;;18.10;15.10;;;;;;;20.21;89.80;101246.22;5088055;28;20192;-76
2022/08/19 00:17:47;;;;;;;17.57;15.07;;;;;;;20.21;89.71;101251.41;5100060;28;20202;-76
2022/08/19 00:20:16;;;;;;;20.60;15.43;;;;;;;20.22;89.59;101248.81;5077919;28;20204;-76
2022/08/19 00:22:43;;;;;;;17.70;15.00;;;;;;;20.22;89.44;101240.16;5094463;28;20267;-76
2022/08/19 00:25:09;;;;;;;16.70;14.83;;;;;;;20.21;90.18;101231.47;5100124;28;20192;-76
2022/08/19 00:27:35;;;;;;;16.77;13.80;;;;;;;20.19;90.02;101222.84;5079544;28;20189;-76
2022/08/19 00:30:03;;;;;;;16.90;13.53;;;;;;;20.22;89.88;101222.78;5094489;28;20245;-76
2022/08/19 00:32:28;;;;;;;16.23;13.87;;;;;;;20.16;90.32;101215.09;5065478;28;20277;-76
2022/08/19 00:34:54;;;;;;;18.90;15.53;;;;;;;20.13;90.19;101209.91;5076848;28;20209;-76
2022/08/19 00:37:22;;;;;;;21.73;15.90;;;;;;;20.11;89.54;101213.41;5081887;28;20196;-75
2022/08/19 00:39:50;;;;;;;22.20;16.83;;;;;;;20.12;89.49;101208.19;5079727;28;20584;-75
2022/08/19 00:42:16;;;;;;;18.23;15.87;;;;;;;20.11;89.38;101209.09;5094370;28;20252;-75
2022/08/19 00:44:42;;;;;;;21.33;16.77;;;;;;;20.07;89.34;101209.09;5076140;28;20200;-75
2022/08/19 00:47:08;;;;;;;20.83;16.30;;;;;;;20.10;88.56;101211.69;5095259;28;20201;-76
2022/08/19 00:49:40;;;;;;;21.23;17.97;;;;;;;20.08;88.94;101208.28;5091534;28;20231;-75
2022/08/19 00:52:09;;;;;;;21.77;17.10;;;;;;;20.06;88.71;101212.59;5098808;28;20256;-77
2022/08/19 00:54:36;;;;;;;21.00;17.77;;;;;;;20.04;88.60;101215.19;5077995;28;20192;-76
2022/08/19 00:57:06;;;;;;;20.00;17.53;;;;;;;20.01;88.44;101217.88;5095638;28;20189;-76
2022/08/19 00:59:35;;;;;;;21.30;17.50;;;;;;;20.04;88.81;101225.59;5058657;28;20196;-77
2022/08/19 01:02:01;;;;;;;22.43;17.60;;;;;;;20.04;88.59;101225.59;5078817;28;20184;-76
2022/08/19 01:04:26;;;;;;;21.57;17.00;;;;;;;20.01;88.85;101228.25;5097659;28;20218;-76
2022/08/19 01:06:52;;;;;;;18.80;15.93;;;;;;;20.01;88.72;101223.06;5080969;28;20223;-76
2022/08/19 01:09:17;;;;;;;24.43;18.07;;;;;;;20.02;88.91;101219.56;5079806;28;20220;-76
2022/08/19 01:11:44;;;;;;;20.77;17.30;;;;;;;20.00;89.45;101217.88;5080709;28;20263;-76
2022/08/19 01:14:10;;;;;;;18.87;16.87;;;;;;;20.00;89.46;101217.88;5096432;28;20183;-76
2022/08/19 01:16:39;;;;;;;21.40;16.97;;;;;;;20.03;89.53;101218.69;5099031;28;20276;-75
2022/08/19 01:22:24;;;;;;;20.80;17.73;;;;;;;20.00;89.74;101199.69;4985281;28;20837;-83
2022/08/19 01:25:27;;;;;;;21.97;17.57;;;;;;;20.00;89.56;101191.88;4915867;29;20198;-84
2022/08/19 01:28:24;;;;;;;19.97;16.63;;;;;;;19.98;90.46;101186.69;4964805;28;20252;-82
2022/08/19 01:31:45;;;;;;;19.13;16.27;;;;;;;19.98;90.24;101184.09;4987546;23;20330;-82
2022/08/19 01:34:41;;;;;;;19.47;16.07;;;;;;;19.96;90.23;101182.38;4986251;28;20187;-81
2022/08/19 01:37:25;;;;;;;21.33;16.93;;;;;;;19.94;90.35;101189.38;4977040;28;20199;-83
2022/08/19 01:40:32;;;;;;;18.17;15.83;;;;;;;19.95;90.24;101178.06;4991624;28;20286;-83
2022/08/19 01:43:40;;;;;;;19.20;15.80;;;;;;;19.91;89.77;101176.41;4983887;28;20255;-83
2022/08/19 01:46:30;;;;;;;;;;;;;;;;;;;;;
2022/08/19 01:49:09;;;;;;;20.93;17.00;;;;;;;19.90;90.20;101172.91;4994258;28;20187;-81
2022/08/19 01:51:53;;;;;;;20.43;16.13;;;;;;;19.87;90.48;101161.72;4985709;28;20243;-82
2022/08/19 01:54:25;;;;;;;18.77;16.50;;;;;;;19.86;90.52;101167.78;4992397;28;20212;-83
2022/08/19 01:57:25;;;;;;;20.30;18.00;;;;;;;19.84;90.52;101175.59;4976858;28;20732;-83
2022/08/19 02:00:03;;;;;;;23.27;17.80;;;;;;;19.85;90.08;101179.09;4966920;28;20234;-84
2022/08/19 02:03:42;;;;;;;21.13;18.93;;;;;;;19.83;90.07;101186.91;5003039;28;20191;-84
2022/08/19 02:06:23;;;;;;;24.80;20.50;;;;;;;19.82;90.07;101184.31;4999122;28;20200;-83
2022/08/19 02:09:11;;;;;;;26.33;20.87;;;;;;;19.81;90.40;101178.25;4992674;28;20665;-82
2022/08/19 02:12:22;;;;;;;25.90;21.03;;;;;;;19.82;90.70;101179.09;4993345;28;20246;-80
2022/08/19 02:14:58;;;;;;;23.73;20.23;;;;;;;19.81;90.86;101173.03;4993281;28;20226;-83
2022/08/19 02:17:39;;;;;;;24.07;21.00;;;;;;;19.80;90.83;101167.88;4989951;28;20206;-83
2022/08/19 02:20:14;;;;;;;27.30;21.63;;;;;;;19.81;90.88;101165.25;4993733;28;20293;-82
2022/08/19 02:22:45;;;;;;;25.83;21.93;;;;;;;19.80;90.55;101160.09;4975104;28;20189;-85
2022/08/19 02:25:29;;;;;;;27.53;21.53;;;;;;;19.80;90.81;101162.69;4972772;28;20816;-84
2022/08/19 02:27:57;;;;;;;27.40;21.87;;;;;;;19.79;91.12;101166.13;5007350;28;20195;-83
2022/08/19 02:30:28;;;;;;;27.67;22.53;;;;;;;19.76;91.42;101167.03;4986310;28;20696;-83
2022/08/19 02:32:59;;;;;;;28.73;23.33;;;;;;;19.78;91.20;101174.81;4985268;28;20200;-82
2022/08/19 02:35:27;;;;;;;32.00;24.53;;;;;;;19.77;91.21;101173.13;4973923;28;20191;-82
2022/08/19 02:41:08;;;;;;;33.60;25.13;;;;;;;19.77;91.37;101166.16;4983316;28;20290;-82
2022/08/19 02:43:54;;;;;;;37.23;26.40;;;;;;;19.76;90.76;101161.00;4971056;28;20180;-81
2022/08/19 02:46:29;;;;;;;37.07;26.27;;;;;;;19.74;91.66;101160.16;4992145;28;20204;-83
2022/08/19 02:49:09;;;;;;;36.60;25.33;;;;;;;19.73;91.02;101150.63;4984463;28;21006;-81
2022/08/19 02:54:59;;;;;;;35.33;26.73;;;;;;;19.67;92.06;101159.34;4987421;28;20673;-82
2022/08/19 02:57:46;;;;;;;36.33;26.83;;;;;;;19.68;91.90;101161.09;4987936;28;20187;-82
2022/08/19 03:04:15;;;;;;;36.57;26.43;;;;;;;19.67;91.88;101167.16;4995671;28;20270;-81
2022/08/19 03:06:49;;;;;;;36.57;26.77;;;;;;;19.68;92.17;101168.91;4981585;28;20203;-81
2022/08/19 03:09:38;;;;;;;35.87;26.20;;;;;;;19.66;92.54;101160.25;4969639;28;20295;-82
2022/08/19 03:12:10;;;;;;;35.57;26.33;;;;;;;19.66;92.25;101146.41;4983415;28;20191;-84
2022/08/19 03:14:37;;;;;;;36.13;26.17;;;;;;;19.67;92.25;101145.53;4991229;28;20191;-88
2022/08/19 03:17:04;;;;;;;32.57;25.67;;;;;;;19.67;92.23;101145.53;4988090;28;20195;-82
2022/08/19 03:19:31;;;;;;;33.33;24.80;;;;;;;19.65;92.53;101145.53;4997536;28;20188;-82
2022/08/19 03:21:58;;;;;;;31.30;24.40;;;;;;;19.65;92.56;101142.94;4994732;28;20192;-83
2022/08/19 03:24:24;;;;;;;30.13;23.57;;;;;;;19.66;92.52;101151.63;4994532;28;20191;-85
2022/08/19 03:26:57;;;;;;;29.37;23.10;;;;;;;19.65;92.38;101158.53;4996554;28;20286;-83
2022/08/19 03:29:23;;;;;;;34.33;24.10;;;;;;;19.66;92.45;101173.25;4996641;28;20196;-84
2022/08/19 03:31:51;;;;;;;29.27;23.17;;;;;;;19.68;92.17;101170.63;4990009;28;20212;-85
2022/08/19 03:34:25;;;;;;;31.23;23.50;;;;;;;19.68;92.35;101162.84;4979777;28;20195;-85
2022/08/19 03:36:51;;;;;;;33.73;24.23;;;;;;;19.68;92.53;101170.63;4980848;28;20209;-85
2022/08/19 03:39:17;;;;;;;35.40;23.63;;;;;;;19.67;92.94;101174.13;4997340;28;20188;-88
2022/08/19 03:41:45;;;;;;;27.37;22.43;;;;;;;19.70;92.44;101174.06;4999376;28;20190;-86
2022/08/19 03:44:10;;;;;;;30.10;23.17;;;;;;;19.73;92.40;101187.91;4995626;28;20188;-84
2022/08/19 03:46:41;;;;;;;31.47;23.20;;;;;;;19.75;92.47;101190.44;5011162;28;20195;-85
2022/08/19 03:49:08;;;;;;;30.37;23.03;;;;;;;19.73;92.52;101187.03;4993032;28;20565;-84
2022/08/19 03:51:38;;;;;;;29.53;22.60;;;;;;;19.72;92.75;101195.72;4975700;28;20235;-84
2022/08/19 03:54:10;;;;;;;31.10;22.70;;;;;;;19.74;92.25;101209.53;5011406;28;20220;-84
2022/08/19 03:56:39;;;;;;;31.70;22.60;;;;;;;19.72;92.42;101203.50;4991929;28;20232;-85
2022/08/19 03:59:11;;;;;;;31.63;23.53;;;;;;;19.73;92.55;101203.50;4987187;28;20692;-84
2022/08/19 04:01:37;;;;;;;29.63;21.23;;;;;;;19.71;92.71;101210.44;4992676;28;20306;-85
2022/08/19 04:04:16;;;;;;;30.40;22.83;;;;;;;19.72;92.29;101219.09;4992276;28;20242;-82
2022/08/19 04:06:48;;;;;;;32.37;23.50;;;;;;;19.71;93.06;101213.03;4990441;28;20192;-84
2022/08/19 04:09:16;;;;;;;31.43;21.70;;;;;;;19.72;92.54;101216.50;4987215;28;20198;-83
2022/08/19 04:12:00;;;;;;;31.67;22.93;;;;;;;19.74;93.00;101215.59;4995941;28;20195;-84
2022/08/19 04:14:33;;;;;;;31.60;22.53;;;;;;;19.74;92.77;101223.41;4992050;28;20282;-86
2022/08/19 04:17:04;;;;;;;30.57;21.67;;;;;;;19.75;92.47;101213.84;4993640;28;20197;-84
2022/08/19 04:19:42;;;;;;;32.00;23.43;;;;;;;19.76;92.66;101220.78;4975072;28;20192;-85
2022/08/19 04:22:09;;;;;;;27.50;21.77;;;;;;;19.74;92.62;101228.59;4995072;28;20199;-85
2022/08/19 04:24:44;;;;;;;32.90;22.30;;;;;;;19.74;92.71;101223.41;4976134;28;20196;-85
2022/08/19 04:27:13;;;;;;;31.67;22.70;;;;;;;19.77;92.63;101220.75;4993979;28;20195;-81
2022/08/19 04:29:41;;;;;;;29.70;23.17;;;;;;;19.77;92.51;101225.09;4992293;28;20214;-80
2022/08/19 04:32:35;;;;;;;33.30;22.63;;;;;;;19.76;92.47;101223.38;4990463;28;20192;-81
2022/08/19 04:35:24;;;;;;;;;;;;;;;;;;;;;
2022/08/19 04:38:22;;;;;;;28.50;22.57;;;;;;;19.79;92.71;101231.13;4993921;28;20195;-83
2022/08/19 04:43:38;;;;;;;26.40;21.00;;;;;;;19.81;92.46;101225.03;4989259;28;20180;-83
2022/08/19 04:46:09;;;;;;;28.30;21.83;;;;;;;19.83;92.72;101230.22;4969494;28;20199;-82
2022/08/19 04:48:35;;;;;;;31.67;23.47;;;;;;;19.80;93.04;101228.50;4986645;28;20563;-83
2022/08/19 04:51:05;;;;;;;27.20;20.67;;;;;;;19.80;92.78;101225.06;4989132;28;20224;-82
2022/08/19 04:53:44;;;;;;;30.90;20.53;;;;;;;19.80;92.73;101233.72;4989553;28;20206;-82
2022/08/19 04:56:22;;;;;;;28.90;20.30;;;;;;;19.78;93.12;101243.28;4987094;28;20214;-81
2022/08/19 04:59:10;;;;;;;37.73;22.67;;;;;;;19.79;92.99;101244.13;4992188;28;20223;-81
2022/08/19 05:01:36;;;;;;;29.33;21.63;;;;;;;19.81;92.88;101237.19;4987381;28;20697;-82
2022/08/19 05:04:04;;;;;;;30.73;22.17;;;;;;;19.79;92.72;101237.19;4978767;28;20202;-83
2022/08/19 05:06:47;;;;;;;36.43;24.63;;;;;;;19.77;93.18;101232.91;4983841;28;20756;-83
2022/08/19 05:09:16;;;;;;;37.60;23.73;;;;;;;19.73;93.62;101250.28;5012074;28;20211;-85
2022/08/19 05:11:50;;;;;;;40.03;24.00;;;;;;;19.74;93.39;101248.50;4980738;28;20255;-85
2022/08/19 05:14:25;;;;;;;30.43;23.03;;;;;;;19.76;93.24;101249.38;4982899;28;20199;-84
2022/08/19 05:17:10;;;;;;;34.30;24.57;;;;;;;19.73;93.51;101239.00;5001966;28;20192;-85
2022/08/19 05:30:55;;;;;;;;;;;;;;;;;;;;;
2022/08/19 05:33:59;;;;;;;33.33;23.97;;;;;;;19.72;94.27;101258.94;4885620;29;20267;-83
2022/08/19 05:36:50;;;;;;;36.43;24.63;;;;;;;19.72;94.38;101260.69;4878041;29;20235;-85
2022/08/19 05:39:54;;;;;;;37.23;24.63;;;;;;;19.71;94.32;101258.97;4897682;29;20207;-86
2022/08/19 05:42:35;;;;;;;34.50;25.97;;;;;;;19.69;94.73;101263.31;4883039;29;20252;-84
2022/08/19 05:46:27;;;;;;;41.67;26.93;;;;;;;19.66;95.26;101250.38;4865721;29;20547;-83
2022/08/19 06:00:01;;;;;;;44.40;28.40;;;;;;;19.64;95.99;101252.97;5018197;28;20272;-82
2022/08/19 06:02:37;;;;;;;39.23;28.90;;;;;;;19.66;95.81;101251.22;5032766;28;20264;-83
2022/08/19 06:05:08;;;;;;;39.70;27.87;;;;;;;19.67;95.77;101254.69;5016561;28;20688;-84
2022/08/19 06:07:35;;;;;;;39.77;27.87;;;;;;;19.64;96.43;101254.69;5034361;28;20569;-82
2022/08/19 06:10:01;;;;;;;41.37;28.67;;;;;;;19.64;96.47;101260.78;5009220;28;20221;-83
2022/08/19 06:12:33;;;;;;;41.47;29.03;;;;;;;19.58;96.55;101249.59;5000307;28;20365;-84
2022/08/19 06:15:07;;;;;;;42.87;30.03;;;;;;;19.61;96.84;101247.81;5024586;28;20183;-84
2022/08/19 06:17:34;;;;;;;43.73;29.87;;;;;;;19.63;97.03;101250.38;5033841;28;20819;-83
2022/08/19 06:20:13;;;;;;;46.47;31.27;;;;;;;19.63;96.63;101247.78;5025554;28;20206;-84
2022/08/19 06:22:59;;;;;;;52.33;33.57;;;;;;;19.60;96.86;101243.50;5019870;28;20201;-80
2022/08/19 06:29:16;;;;;;;;;;;;;;;;;;;;;
2022/08/19 06:36:26;;;;;;;50.50;32.03;;;;;;;19.81;95.28;101237.19;4941865;28;20203;-82
2022/08/19 06:38:53;;;;;;;47.87;30.30;;;;;;;19.84;95.04;101237.13;5003196;28;20230;-82
2022/08/19 06:41:19;;;;;;;44.57;30.43;;;;;;;19.92;94.79;101237.91;4994828;28;20245;-81
2022/08/19 06:43:45;;;;;;;50.80;31.77;;;;;;;20.01;94.27;101237.78;4997603;28;20202;-81
2022/08/19 06:46:15;;;;;;;56.43;32.03;;;;;;;20.03;94.05;101239.50;5030976;28;20645;-83
2022/08/19 06:48:41;;;;;;;49.53;30.97;;;;;;;20.06;93.45;101236.88;5014034;28;20583;-81
2022/08/19 06:51:07;;;;;;;47.87;30.27;;;;;;;20.20;92.97;101234.97;4998423;28;20234;-85
2022/08/19 06:53:33;;;;;;;44.63;30.87;;;;;;;20.28;92.55;101227.06;5001761;28;20611;-83
2022/08/19 06:56:02;;;;;;;48.27;31.70;;;;;;;20.36;91.95;101217.41;5010453;28;20260;-83
2022/08/19 06:58:31;;;;;;;53.73;32.77;;;;;;;20.45;90.98;101222.47;5016897;28;20293;-85
2022/08/19 07:01:01;;;;;;;50.77;32.27;;;;;;;20.50;91.05;101220.66;5019932;28;20208;-86
2022/08/19 07:03:34;;;;;;;47.80;32.37;;;;;;;20.45;91.40;101225.94;5027203;28;20240;-84
2022/08/19 07:06:14;;;;;;;47.03;31.53;;;;;;;20.41;91.90;101218.19;5017949;28;20529;-84
2022/08/19 07:08:42;;;;;;;49.37;32.03;;;;;;;20.40;91.56;101219.09;5002508;28;20198;-84
2022/08/19 07:11:10;;;;;;;54.07;33.77;;;;;;;20.36;90.93;101220.03;5004570;28;20218;-87
2022/08/19 07:13:43;;;;;;;52.87;32.63;;;;;;;20.38;90.86;101226.91;5020295;28;20255;-86
2022/08/19 07:16:16;;;;;;;45.07;29.90;;;;;;;20.41;91.21;101229.44;5004421;28;20205;-88
2022/08/19 07:18:44;;;;;;;43.53;30.00;;;;;;;20.38;90.48;101232.13;5003399;28;20198;-87
2022/08/19 07:21:29;;;;;;;43.47;29.07;;;;;;;20.41;90.26;101232.06;5017320;28;20207;-84
2022/08/19 07:23:56;;;;;;;46.37;31.80;;;;;;;20.40;90.78;101232.94;5022891;28;20225;-84
2022/08/19 07:26:30;;;;;;;50.00;34.07;;;;;;;20.39;90.60;101246.84;5028975;28;20186;-84
2022/08/19 07:28:57;;;;;;;57.97;32.47;;;;;;;20.36;90.75;101254.69;5035872;28;20199;-84
2022/08/19 07:31:24;;;;;;;52.83;33.43;;;;;;;20.35;91.23;101259.91;4997656;28;20860;-84
2022/08/19 07:33:52;;;;;;;48.00;32.53;;;;;;;20.34;90.82;101263.38;5001303;28;20344;-80
2022/08/19 07:44:17;;;;;;;46.53;31.40;;;;;;;20.41;90.35;101265.03;4925864;29;20293;-82
2022/08/19 07:59:08;;;;;;;39.93;28.27;;;;;;;20.44;90.16;101285.78;5028555;28;20295;-81
2022/08/19 08:01:33;;;;;;;41.37;28.73;;;;;;;20.40;90.01;101292.78;5000052;28;20199;-84
2022/08/19 08:12:02;;;;;;;40.60;27.87;;;;;;;20.51;90.13;101305.66;4987505;28;20723;-81
2022/08/19 08:15:47;;;;;;;;;;;;;;;;;;;;;
2022/08/19 08:18:41;;;;;;;50.67;33.07;;;;;;;20.52;89.84;101304.78;5010428;28;20310;-82
2022/08/19 08:25:34;;;;;;;51.80;34.23;;;;;;;20.46;91.20;101310.91;4881686;29;20249;-83
2022/08/19 08:37:17;;;;;;;51.17;33.13;;;;;;;20.48;90.82;101316.09;4910648;29;20221;-81
2022/08/19 08:44:49;;;;;;;43.93;32.33;;;;;;;20.45;90.64;101318.78;4989123;28;20290;-83
2022/08/19 08:52:42;;;;;;;43.03;32.57;;;;;;;20.35;90.58;101320.63;5010273;28;20241;-81
2022/08/19 09:00:17;;;;;;;43.00;30.57;;;;;;;20.39;90.77;101330.09;4998320;28;20206;-83
2022/08/19 09:03:20;;;;;;;43.30;30.50;;;;;;;20.38;90.64;101332.72;4997115;28;20199;-85
2022/08/19 09:06:38;;;;;;;46.27;29.17;;;;;;;20.39;90.67;101326.63;5011682;28;20203;-82
2022/08/19 09:15:10;;;;;;;22.97;18.47;;;;;;;20.33;89.51;101329.31;4974169;28;20789;-80
2022/08/19 09:19:00;;;;;;;25.97;18.17;;;;;;;20.37;89.23;101334.47;4961242;28;20192;-82
2022/08/19 09:28:03;;;;;;;25.37;16.00;;;;;;;20.55;88.26;101322.97;4996939;28;20193;-83
2022/08/19 09:35:02;;;;;;;23.23;17.50;;;;;;;20.58;87.26;101310.75;4973308;28;20286;-83
2022/08/19 09:38:02;;;;;;;23.63;18.50;;;;;;;20.64;87.62;101320.25;4978886;28;20211;-82
2022/08/19 09:40:58;;;;;;;23.40;18.37;;;;;;;20.66;87.60;101313.25;4990341;28;20215;-82
2022/08/19 09:44:07;;;;;;;23.50;18.63;;;;;;;20.69;87.73;101318.44;4998149;28;20231;-83
2022/08/19 09:47:38;;;;;;;26.37;19.97;;;;;;;20.70;87.79;101314.94;4937353;28;20193;-86
2022/08/19 09:50:41;;;;;;;24.97;19.53;;;;;;;20.74;87.46;101321.81;5060766;23;20230;-82
2022/08/19 09:54:25;;;;;;;35.43;22.53;;;;;;;20.83;88.09;101319.09;5020658;28;20248;-83
2022/08/19 09:58:26;;;;;;;;;;;;;;;;;;;;;
2022/08/19 10:02:09;;;;;;;34.80;23.97;;;;;;;20.91;87.79;101320.72;4958915;28;20295;-83
2022/08/19 10:12:10;;;;;;;36.87;25.93;;;;;;;21.06;87.45;101327.44;4892127;29;20244;-81
2022/08/19 10:15:14;;;;;;;35.20;24.30;;;;;;;21.14;87.98;101328.19;4870962;29;20199;-82
2022/08/19 10:18:49;;;;;;;35.37;26.03;;;;;;;21.19;87.60;101323.78;4978348;28;20697;-81
2022/08/19 10:29:56;;;;;;;38.57;25.43;;;;;;;21.17;87.10;101331.59;4878430;29;20281;-83
2022/08/19 10:33:15;;;;;;;35.50;24.63;;;;;;;21.18;86.92;101332.44;4947483;28;20207;-82
2022/08/19 10:36:29;;;;;;;37.17;26.07;;;;;;;21.12;87.68;101335.16;5011029;28;20195;-83
2022/08/19 10:39:21;;;;;;;38.10;25.23;;;;;;;21.10;87.50;101331.72;4995514;28;20214;-83
2022/08/19 10:42:35;;;;;;;35.73;25.77;;;;;;;21.09;87.11;101333.47;5010288;28;20191;-82
2022/08/19 10:46:14;;;;;;;37.07;25.23;;;;;;;21.11;87.30;101334.31;5010692;28;20245;-85
2022/08/19 10:48:57;;;;;;;37.93;24.53;;;;;;;21.07;87.85;101324.81;5000931;28;20191;-85
2022/08/19 11:02:42;;;;;;;35.57;25.57;;;;;;;21.09;87.54;101330.84;5026764;28;20219;-83
2022/08/19 11:05:16;;;;;;;36.50;24.80;;;;;;;21.15;87.77;101333.34;5006338;28;20213;-84
2022/08/19 11:08:07;;;;;;;42.23;27.17;;;;;;;21.18;87.01;101327.22;5030605;28;20199;-80
2022/08/19 11:10:38;;;;;;;41.03;25.87;;;;;;;21.26;86.65;101334.06;5031542;28;20220;-82
2022/08/19 11:13:11;;;;;;;35.50;25.13;;;;;;;21.32;86.23;101325.25;5013035;28;20222;-81
2022/08/19 11:16:13;;;;;;;37.17;25.43;;;;;;;21.35;86.44;101325.22;4999894;28;20204;-82
2022/08/19 11:19:09;;;;;;;33.47;23.70;;;;;;;21.38;86.11;101328.63;4973367;28;20222;-85
2022/08/19 11:21:51;;;;;;;39.00;25.23;;;;;;;21.42;86.03;101332.06;4980920;28;20683;-83
2022/08/19 11:24:25;;;;;;;35.53;25.30;;;;;;;21.44;86.17;101319.84;4999039;28;20199;-84
2022/08/19 11:27:14;;;;;;;;;;;;;;;;;;;;;
2022/08/19 11:29:52;;;;;;;36.70;24.73;;;;;;;21.54;85.24;101317.06;5019184;28;20214;-83
2022/08/19 11:32:30;;;;;;;35.60;24.60;;;;;;;21.52;85.72;101315.38;5035215;28;20194;-82
2022/08/19 11:35:15;;;;;;;38.43;26.10;;;;;;;21.55;85.33;101313.56;5031175;28;20234;-83
2022/08/19 11:37:43;;;;;;;33.73;23.67;;;;;;;21.68;85.50;101304.63;5020688;28;20233;-81
2022/08/19 11:40:17;;;;;;;32.40;24.03;;;;;;;21.75;85.39;101298.44;5037755;28;20202;-84
2022/08/19 11:42:56;;;;;;;36.53;23.20;;;;;;;21.81;84.75;101297.47;5037694;28;20218;-81
2022/08/19 11:45:33;;;;;;;37.20;23.43;;;;;;;21.90;84.91;101311.22;5024627;28;20186;-81
2022/08/19 11:48:02;;;;;;;31.70;22.73;;;;;;;21.82;84.75;101304.41;5019471;28;20245;-82
2022/08/19 11:50:46;;;;;;;36.03;23.20;;;;;;;21.86;84.35;101306.06;5021830;28;20218;-84
2022/08/19 11:53:16;;;;;;;32.27;23.20;;;;;;;21.81;84.72;101303.56;5018106;28;20201;-83
2022/08/19 11:55:45;;;;;;;30.90;23.57;;;;;;;21.74;85.06;101312.38;5019133;28;20221;-83
2022/08/19 11:58:12;;;;;;;31.93;23.87;;;;;;;21.72;85.08;101311.56;5020416;28;20191;-83
2022/08/19 12:00:38;;;;;;;32.77;24.80;;;;;;;21.72;85.05;101318.50;5016765;28;20242;-83
2022/08/19 12:03:03;;;;;;;30.23;21.67;;;;;;;21.72;85.36;101314.16;5007627;28;20748;-83
2022/08/19 12:05:29;;;;;;;35.87;23.80;;;;;;;21.70;85.56;101304.66;5039068;28;20217;-84
2022/08/19 12:07:55;;;;;;;30.90;22.90;;;;;;;21.76;85.06;101310.63;5014540;28;20232;-86
2022/08/19 12:10:22;;;;;;;34.70;23.87;;;;;;;21.80;85.04;101314.00;5021661;28;20216;-82
2022/08/19 12:12:48;;;;;;;31.47;22.87;;;;;;;21.85;84.77;101309.56;5026024;28;20191;-81
2022/08/19 12:15:14;;;;;;;32.83;24.20;;;;;;;21.95;84.33;101305.88;5035758;28;20199;-81
2022/08/19 12:17:42;;;;;;;34.03;24.47;;;;;;;22.02;83.95;101310.13;5001038;28;20194;-83
2022/08/19 12:20:13;;;;;;;32.97;24.90;;;;;;;22.13;83.88;101311.63;5032291;28;20268;-81
2022/08/19 12:22:41;;;;;;;30.93;23.57;;;;;;;22.17;83.83;101297.63;5017013;28;20734;-81
2022/08/19 12:25:11;;;;;;;31.33;23.97;;;;;;;22.18;83.32;101298.47;5023129;28;20202;-80
2022/08/19 12:27:40;;;;;;;33.80;23.97;;;;;;;22.23;83.18;101301.84;5005663;28;20660;-83
2022/08/19 12:30:10;;;;;;;32.57;24.10;;;;;;;22.25;83.40;101305.28;5018211;28;20280;-81
2022/08/19 12:32:46;;;;;;;32.23;23.30;;;;;;;22.39;83.07;101303.25;4999555;28;20193;-84
2022/08/19 12:35:19;;;;;;;31.83;24.43;;;;;;;22.48;82.43;101304.81;5036071;28;20201;-82
2022/08/19 12:37:46;;;;;;;35.47;24.73;;;;;;;22.55;82.23;101309.88;5019519;28;20194;-82
2022/08/19 12:40:18;;;;;;;30.93;23.57;;;;;;;22.66;81.78;101309.63;5002793;28;20225;-79
2022/08/19 12:42:44;;;;;;;35.07;24.27;;;;;;;22.72;81.57;101307.75;4998903;28;20266;-83
2022/08/19 12:45:13;;;;;;;32.03;23.23;;;;;;;22.98;80.25;101301.91;5037138;28;20266;-82
2022/08/19 12:47:46;;;;;;;32.27;23.93;;;;;;;22.99;79.96;101299.28;5015322;28;20187;-82
2022/08/19 12:50:12;;;;;;;30.03;24.20;;;;;;;22.85;80.18;101300.47;5018784;28;20211;-83
2022/08/19 12:52:38;;;;;;;33.30;24.20;;;;;;;22.92;80.43;101294.25;5001591;28;20187;-84
2022/08/19 12:55:06;;;;;;;30.53;23.07;;;;;;;22.97;79.97;101306.28;5018593;28;20187;-81
2022/08/19 12:57:34;;;;;;;31.97;23.20;;;;;;;22.88;80.21;101301.25;5016674;28;20198;-81
2022/08/19 13:00:26;;;;;;;28.47;21.63;;;;;;;22.82;79.94;101293.59;5003552;28;20207;-83
2022/08/19 13:02:52;;;;;;;32.07;22.77;;;;;;;22.88;79.96;101297.81;5018407;28;20201;-82
2022/08/19 13:05:24;;;;;;;28.27;21.17;;;;;;;22.97;80.11;101301.03;5018555;28;20609;-81
2022/08/19 13:07:52;;;;;;;27.43;21.17;;;;;;;23.18;78.82;101297.94;5035879;28;20202;-83
2022/08/19 13:10:19;;;;;;;27.77;21.13;;;;;;;23.51;77.39;101289.25;5035685;28;20206;-83
2022/08/19 13:12:48;;;;;;;25.08;21.60;;;;;;;24.16;75.60;101283.09;5017789;28;20890;-82
2022/08/19 13:15:19;;;;;;;25.33;20.52;;;;;;;24.75;73.74;101286.53;5015405;28;20278;-82
2022/08/19 13:17:47;;;;;;;24.92;19.30;;;;;;;25.22;71.67;101276.22;5025661;28;20198;-84
2022/08/19 13:20:13;;;;;;;21.67;18.25;;;;;;;25.52;69.25;101279.59;5014480;28;20206;-84
2022/08/19 13:22:39;;;;;;;26.60;17.98;;;;;;;25.76;68.68;101273.47;5019650;28;20557;-83
2022/08/19 13:25:06;;;;;;;21.58;17.77;;;;;;;25.87;68.94;101264.31;5018918;28;20320;-86
2022/08/19 13:27:32;;;;;;;18.75;16.65;;;;;;;25.88;67.23;101266.00;5018660;28;20192;-83
2022/08/19 13:35:45;;;;;;;19.05;16.40;;;;;;;25.07;69.74;101268.00;4966510;28;20200;-84
2022/08/19 13:38:12;;;;;;;20.13;17.25;;;;;;;25.16;70.99;101260.72;4991264;28;20205;-83
2022/08/19 13:40:39;;;;;;;19.35;17.27;;;;;;;25.09;70.18;101260.97;5001618;28;20727;-84
2022/08/19 13:43:04;;;;;;;19.30;15.95;;;;;;;25.23;69.75;101264.81;4999680;28;20193;-84
2022/08/19 13:45:35;;;;;;;22.05;16.27;;;;;;;25.17;69.43;101272.91;5000700;28;20209;-85
2022/08/19 13:48:06;;;;;;;17.65;15.15;;;;;;;25.09;70.88;101268.84;5019387;28;20247;-84
2022/08/19 13:50:32;;;;;;;23.67;19.02;;;;;;;24.94;70.30;101272.81;5020853;28;20214;-85
2022/08/19 13:52:59;;;;;;;19.40;17.48;;;;;;;24.85;70.62;101262.63;5019193;28;20179;-84
2022/08/19 13:55:26;;;;;;;24.13;20.27;;;;;;;24.69;70.93;101257.91;4998626;28;20191;-85
2022/08/19 13:57:59;;;;;;;22.67;19.52;;;;;;;24.74;71.87;101266.50;5022272;28;20253;-84
2022/08/19 14:00:30;;;;;;;21.52;19.08;;;;;;;24.77;71.21;101264.63;5002046;28;20688;-85
2022/08/19 14:02:57;;;;;;;23.67;20.33;;;;;;;24.78;70.63;101265.50;5031937;28;20194;-85
2022/08/19 14:05:25;;;;;;;23.13;20.15;;;;;;;24.82;71.16;101267.09;5002025;28;20195;-84
2022/08/19 14:07:50;;;;;;;21.17;18.50;;;;;;;24.76;71.34;101267.28;5013381;28;20195;-82
2022/08/19 14:10:17;;;;;;;25.58;18.40;;;;;;;24.66;71.55;101271.97;5032919;28;20233;-81
2022/08/19 14:12:46;;;;;;;20.15;18.00;;;;;;;24.63;71.49;101266.81;5033419;28;20187;-81
2022/08/19 14:15:14;;;;;;;22.02;19.70;;;;;;;24.70;71.43;101264.88;5010887;28;20226;-81
2022/08/19 14:17:44;;;;;;;21.48;18.00;;;;;;;24.82;71.27;101256.63;5030011;28;20664;-81
2022/08/19 14:20:10;;;;;;;20.55;17.05;;;;;;;24.87;71.24;101257.34;4995367;28;20607;-82
2022/08/19 14:22:38;;;;;;;19.85;17.10;;;;;;;25.09;69.86;101261.81;4994929;28;20202;-83
2022/08/19 14:25:07;;;;;;;22.83;18.60;;;;;;;25.15;70.25;101247.66;5012671;28;20182;-84
2022/08/19 14:27:36;;;;;;;21.75;18.23;;;;;;;25.32;68.92;101247.97;4995676;28;20234;-83
2022/08/19 14:30:07;;;;;;;22.67;18.75;;;;;;;24.99;68.94;101247.28;5027418;28;20253;-83
2022/08/19 14:32:38;;;;;;;17.88;15.98;;;;;;;24.92;71.16;101255.41;5015305;28;20277;-81
2022/08/19 14:35:14;;;;;;;19.20;16.15;;;;;;;24.89;69.75;101256.38;5012340;28;20712;-83
2022/08/19 14:37:44;;;;;;;21.10;17.38;;;;;;;24.94;69.36;101249.22;5004529;28;20309;-84